createdAt,value
2018-01-17T00:01:30.600Z,1.53
2018-01-17T00:03:56.606Z,1.43
2018-01-17T00:06:22.638Z,1.45
2018-01-17T00:08:48.676Z,1.38
2018-01-17T00:11:14.702Z,1.31
2018-01-17T00:13:40.732Z,1.26
2018-01-17T00:16:06.768Z,1.39
2018-01-17T00:18:32.816Z,1.41
2018-01-17T00:20:58.824Z,1.48
2018-01-17T00:23:24.842Z,1.37
2018-01-17T00:25:50.891Z,1.36
2018-01-17T00:28:16.916Z,1.28
2018-01-17T00:30:42.905Z,1.14
2018-01-17T00:33:08.952Z,1.08
2018-01-17T00:35:34.972Z,1.10
2018-01-17T00:38:01.026Z,1.10
2018-01-17T00:40:27.088Z,1.15
2018-01-17T00:42:53.104Z,1.11
2018-01-17T00:45:19.156Z,1.14
2018-01-17T00:47:45.132Z,1.14
2018-01-17T00:50:11.189Z,1.12
2018-01-17T00:52:37.203Z,1.12
2018-01-17T00:55:03.205Z,1.09
2018-01-17T00:57:29.289Z,1.08
2018-01-17T00:59:55.309Z,1.12
2018-01-17T01:02:21.355Z,1.09
2018-01-17T01:04:47.357Z,1.06
2018-01-17T01:07:13.456Z,1.21
2018-01-17T01:09:39.460Z,1.27
2018-01-17T01:12:05.452Z,1.22
2018-01-17T01:14:31.473Z,1.25
2018-01-17T01:16:57.532Z,1.34
2018-01-17T01:19:23.540Z,1.54
2018-01-17T01:21:49.668Z,1.67
2018-01-17T01:24:15.716Z,1.69
2018-01-17T01:26:41.776Z,1.79
2018-01-17T01:29:07.800Z,1.77
2018-01-17T01:31:33.819Z,1.66
2018-01-17T01:33:59.828Z,1.53
2018-01-17T01:36:25.909Z,1.65
2018-01-17T01:38:51.908Z,1.69
2018-01-17T01:41:18.004Z,1.69
2018-01-17T01:43:44.039Z,1.69
2018-01-17T01:46:10.032Z,1.56
2018-01-17T01:48:36.072Z,1.35
2018-01-17T01:51:02.034Z,1.16
2018-01-17T01:53:28.149Z,1.13
2018-01-17T01:55:54.092Z,1.07
2018-01-17T01:58:20.093Z,1.04
2018-01-17T02:00:46.140Z,1.02
2018-01-17T02:03:12.130Z,0.98
2018-01-17T02:05:38.184Z,0.95
2018-01-17T02:08:04.192Z,0.89
2018-01-17T02:10:30.225Z,0.94
2018-01-17T02:12:56.240Z,0.83
2018-01-17T02:15:22.256Z,0.81
2018-01-17T02:17:48.225Z,0.71
2018-01-17T02:20:21.236Z,0.74
2018-01-17T02:22:47.261Z,0.79
2018-01-17T02:25:13.241Z,1.02
2018-01-17T02:27:39.235Z,1.04
2018-01-17T02:30:05.320Z,0.95
2018-01-17T02:32:31.321Z,0.95
2018-01-17T02:34:57.342Z,0.92
2018-01-17T02:37:23.357Z,1.03
2018-01-17T02:40:01.681Z,1.12
2018-01-17T02:42:27.686Z,1.07
2018-01-17T02:44:53.989Z,1.16
2018-01-17T02:47:20.036Z,1.16
2018-01-17T02:49:46.098Z,1.21
2018-01-17T02:52:12.159Z,1.31
2018-01-17T02:54:38.156Z,1.42
2018-01-17T02:57:04.205Z,1.52
2018-01-17T02:59:30.274Z,1.40
2018-01-17T03:01:56.292Z,1.27
2018-01-17T03:04:22.269Z,1.32
2018-01-17T03:06:48.318Z,1.42
2018-01-17T03:09:14.348Z,1.50
2018-01-17T03:11:40.449Z,1.50
2018-01-17T03:14:06.473Z,1.51
2018-01-17T03:16:32.501Z,1.38
2018-01-17T03:18:58.599Z,1.33
2018-01-17T03:21:24.674Z,1.37
2018-01-17T03:23:50.653Z,1.30
2018-01-17T03:26:16.676Z,1.42
2018-01-17T03:28:42.698Z,1.32
2018-01-17T03:31:08.741Z,1.42
2018-01-17T03:33:34.727Z,1.42
2018-01-17T03:36:00.768Z,1.45
2018-01-17T03:38:26.824Z,1.44
2018-01-17T03:40:52.842Z,1.27
2018-01-17T03:43:18.860Z,1.29
2018-01-17T03:45:44.963Z,1.38
2018-01-17T03:48:10.944Z,1.37
2018-01-17T03:50:36.985Z,1.49
2018-01-17T03:53:03.058Z,1.50
2018-01-17T03:55:29.079Z,1.47
2018-01-17T03:57:55.101Z,1.44
2018-01-17T04:00:21.465Z,1.45
2018-01-17T04:02:47.484Z,1.46
2018-01-17T04:05:13.521Z,1.44
2018-01-17T04:07:39.522Z,1.44
2018-01-17T04:10:05.549Z,1.40
2018-01-17T04:12:31.916Z,1.45
2018-01-17T04:14:57.936Z,1.37
2018-01-17T04:17:23.900Z,1.40
2018-01-17T04:19:49.896Z,1.36
2018-01-17T04:22:15.885Z,1.37
2018-01-17T04:24:41.926Z,1.43
2018-01-17T04:27:07.947Z,1.41
2018-01-17T04:29:34.305Z,1.43
2018-01-17T04:32:00.313Z,1.38
2018-01-17T04:34:26.404Z,1.39
2018-01-17T04:36:52.385Z,1.42
2018-01-17T04:39:18.390Z,1.46
2018-01-17T04:41:44.442Z,1.40
2018-01-17T04:44:10.544Z,1.39
2018-01-17T04:46:36.575Z,1.28
2018-01-17T04:49:02.613Z,1.36
2018-01-17T04:51:28.612Z,1.20
2018-01-17T04:53:54.616Z,1.28
2018-01-17T04:56:20.680Z,1.26
2018-01-17T04:58:46.812Z,1.31
2018-01-17T05:01:12.905Z,1.34
2018-01-17T05:03:38.909Z,1.41
2018-01-17T05:06:04.899Z,1.43
2018-01-17T05:08:30.929Z,1.46
2018-01-17T05:10:56.937Z,1.42
2018-01-17T05:13:22.968Z,1.48
2018-01-17T05:15:49.002Z,1.45
2018-01-17T05:18:15.025Z,1.51
2018-01-17T05:20:41.072Z,1.41
2018-01-17T05:23:07.139Z,1.45
2018-01-17T05:25:33.150Z,1.44
2018-01-17T05:27:59.196Z,1.45
2018-01-17T05:30:25.226Z,1.53
2018-01-17T05:32:51.229Z,1.38
2018-01-17T05:35:17.253Z,1.33
2018-01-17T05:37:43.284Z,1.44
2018-01-17T05:40:09.248Z,1.40
2018-01-17T05:42:35.261Z,1.36
2018-01-17T05:45:01.294Z,1.36
2018-01-17T05:47:27.361Z,1.36
2018-01-17T05:49:53.373Z,1.46
2018-01-17T05:52:19.380Z,1.44
2018-01-17T05:54:45.416Z,1.27
2018-01-17T05:57:11.448Z,1.31
2018-01-17T05:59:37.504Z,1.39
2018-01-17T06:02:03.584Z,1.44
2018-01-17T06:04:29.632Z,1.35
2018-01-17T06:06:55.661Z,1.43
2018-01-17T06:09:21.731Z,1.37
2018-01-17T06:11:47.768Z,1.41
2018-01-17T06:14:13.828Z,1.40
2018-01-17T06:16:39.849Z,1.51
2018-01-17T06:19:06.012Z,1.57
2018-01-17T06:21:32.073Z,1.45
2018-01-17T06:23:58.120Z,1.60
2018-01-17T06:26:24.177Z,1.46
2018-01-17T06:28:50.215Z,1.58
2018-01-17T06:31:16.305Z,1.60
2018-01-17T06:33:42.324Z,1.51
2018-01-17T06:36:08.352Z,1.49
2018-01-17T06:38:34.376Z,1.45
2018-01-17T06:41:00.425Z,1.25
2018-01-17T06:43:26.457Z,1.33
2018-01-17T06:45:52.528Z,1.32
2018-01-17T06:48:18.676Z,1.25
2018-01-17T06:50:44.698Z,1.38
2018-01-17T06:53:10.745Z,1.34
2018-01-17T06:55:36.887Z,1.31
2018-01-17T06:58:02.892Z,1.29
2018-01-17T07:00:28.901Z,1.38
2018-01-17T07:02:54.929Z,1.45
2018-01-17T07:05:21.022Z,1.56
2018-01-17T07:07:47.079Z,1.48
2018-01-17T07:10:13.152Z,1.19
2018-01-17T07:12:39.232Z,1.36
2018-01-17T07:15:05.236Z,1.36
2018-01-17T07:17:31.236Z,1.19
2018-01-17T07:19:57.232Z,1.32
2018-01-17T07:22:23.292Z,1.31
2018-01-17T07:24:49.311Z,1.37
2018-01-17T07:27:15.316Z,1.46
2018-01-17T07:29:41.349Z,1.37
2018-01-17T07:32:07.348Z,1.28
2018-01-17T07:34:33.388Z,1.24
2018-01-17T07:36:59.404Z,1.24
2018-01-17T07:39:25.459Z,1.25
2018-01-17T07:41:51.516Z,1.36
2018-01-17T07:44:17.537Z,1.35
2018-01-17T07:46:43.579Z,1.49
2018-01-17T07:49:09.616Z,1.51
2018-01-17T07:51:35.704Z,1.60
2018-01-17T07:54:01.709Z,1.58
2018-01-17T07:56:27.733Z,1.61
2018-01-17T07:58:53.749Z,1.55
2018-01-17T08:01:19.764Z,1.50
2018-01-17T08:03:45.818Z,1.60
2018-01-17T08:06:11.852Z,1.61
2018-01-17T08:08:37.871Z,1.68
2018-01-17T08:11:03.911Z,1.79
2018-01-17T08:13:29.929Z,1.95
2018-01-17T08:15:56.008Z,1.99
2018-01-17T08:18:22.028Z,2.04
2018-01-17T08:20:48.095Z,2.10
2018-01-17T08:23:14.137Z,2.08
2018-01-17T08:25:40.161Z,2.07
2018-01-17T08:28:12.986Z,2.07
2018-01-17T08:30:38.945Z,2.13
2018-01-17T08:33:05.014Z,2.03
2018-01-17T08:35:31.041Z,1.90
2018-01-17T08:37:57.045Z,1.95
2018-01-17T08:40:23.068Z,1.98
2018-01-17T08:42:49.072Z,2.01
2018-01-17T08:45:15.117Z,1.97
2018-01-17T08:47:41.157Z,1.88
2018-01-17T08:50:07.116Z,1.83
2018-01-17T08:52:33.167Z,1.85
2018-01-17T08:54:59.175Z,1.78
2018-01-17T08:57:25.228Z,1.71
2018-01-17T08:59:51.205Z,1.84
2018-01-17T09:02:17.319Z,1.82
2018-01-17T09:04:43.361Z,1.84
2018-01-17T09:07:09.689Z,1.95
2018-01-17T09:09:35.724Z,1.90
2018-01-17T09:12:01.800Z,1.74
2018-01-17T09:14:27.810Z,1.79
2018-01-17T09:16:53.871Z,1.86
2018-01-17T09:19:19.896Z,1.85
2018-01-17T09:21:45.947Z,1.72
2018-01-17T09:24:11.943Z,1.73
2018-01-17T09:26:37.989Z,1.67
2018-01-17T09:29:04.033Z,1.55
2018-01-17T09:31:30.045Z,1.31
2018-01-17T09:33:56.117Z,1.22
2018-01-17T09:36:22.116Z,1.38
2018-01-17T09:38:48.144Z,1.38
2018-01-17T09:41:14.200Z,1.41
2018-01-17T09:43:40.254Z,1.42
2018-01-17T09:46:06.288Z,1.45
2018-01-17T09:48:32.352Z,1.43
2018-01-17T09:50:58.382Z,1.40
2018-01-17T09:53:24.436Z,1.38
2018-01-17T09:55:50.456Z,1.26
2018-01-17T09:58:16.568Z,1.25
2018-01-17T10:00:42.552Z,1.20
2018-01-17T10:03:08.584Z,1.24
2018-01-17T10:05:34.637Z,1.13
2018-01-17T10:08:00.723Z,1.05
2018-01-17T10:10:26.756Z,1.05
2018-01-17T10:12:52.760Z,1.00
2018-01-17T10:15:18.860Z,0.93
2018-01-17T10:17:44.870Z,0.95
2018-01-17T10:20:10.890Z,0.97
2018-01-17T10:22:36.900Z,0.95
2018-01-17T10:25:03.295Z,1.04
2018-01-17T10:27:29.327Z,1.12
2018-01-17T10:29:55.348Z,1.20
2018-01-17T10:32:21.400Z,1.28
2018-01-17T10:34:47.448Z,1.36
2018-01-17T10:37:13.486Z,1.32
2018-01-17T10:39:39.589Z,1.45
2018-01-17T10:42:05.623Z,1.42
2018-01-17T10:44:31.699Z,1.42
2018-01-17T10:46:57.654Z,1.43
2018-01-17T10:49:23.705Z,1.41
2018-01-17T10:51:49.720Z,1.32
2018-01-17T10:54:15.730Z,1.43
2018-01-17T10:56:41.765Z,1.50
2018-01-17T10:59:07.753Z,1.45
2018-01-17T11:01:33.863Z,1.60
2018-01-17T11:03:59.948Z,1.72
2018-01-17T11:06:25.905Z,1.69
2018-01-17T11:08:52.021Z,1.83
2018-01-17T11:11:18.120Z,1.77
2018-01-17T11:13:44.221Z,1.74
2018-01-17T11:16:10.232Z,1.80
2018-01-17T11:18:36.284Z,1.74
2018-01-17T11:21:02.365Z,1.62
2018-01-17T11:23:28.406Z,1.70
2018-01-17T11:25:54.493Z,1.67
2018-01-17T11:28:20.485Z,1.53
2018-01-17T11:30:46.537Z,1.56
2018-01-17T11:33:12.598Z,1.44
2018-01-17T11:35:38.613Z,1.69
2018-01-17T11:38:04.624Z,1.69
2018-01-17T11:40:30.668Z,1.58
2018-01-17T11:42:56.703Z,1.54
2018-01-17T11:45:22.713Z,1.55
2018-01-17T11:47:48.832Z,1.53
2018-01-17T11:50:14.985Z,1.50
2018-01-17T11:52:40.996Z,1.55
2018-01-17T11:55:07.013Z,1.50
2018-01-17T11:57:33.084Z,1.59
2018-01-17T11:59:59.097Z,1.61
2018-01-17T12:02:25.074Z,1.59
2018-01-17T12:04:51.143Z,1.47
2018-01-17T12:07:17.146Z,1.66
2018-01-17T12:09:43.167Z,1.69
2018-01-17T12:12:09.292Z,1.67
2018-01-17T12:14:35.308Z,1.88
2018-01-17T12:17:01.368Z,2.09
2018-01-17T12:19:27.329Z,1.92
2018-01-17T12:21:53.317Z,2.03
2018-01-17T12:24:19.302Z,2.00
2018-01-17T12:26:45.369Z,1.93
2018-01-17T12:29:11.397Z,1.70
2018-01-17T12:31:37.422Z,1.68
2018-01-17T12:34:03.460Z,1.48
2018-01-17T12:36:29.489Z,1.26
2018-01-17T12:38:55.533Z,1.12
2018-01-17T12:41:21.569Z,0.72
2018-01-17T12:43:47.573Z,0.77
2018-01-17T12:46:13.577Z,0.83
2018-01-17T12:48:39.609Z,0.77
2018-01-17T12:51:05.648Z,0.78
2018-01-17T12:53:31.709Z,0.73
2018-01-17T12:55:57.735Z,0.69
2018-01-17T12:58:23.757Z,0.74
2018-01-17T13:00:49.775Z,0.73
2018-01-17T13:03:15.800Z,0.76
2018-01-17T13:05:41.844Z,0.81
2018-01-17T13:08:07.865Z,0.78
2018-01-17T13:10:33.890Z,0.82
2018-01-17T13:12:59.928Z,1.04
2018-01-17T13:15:25.947Z,1.02
2018-01-17T13:17:51.960Z,1.18
2018-01-17T13:20:18.017Z,1.37
2018-01-17T13:22:44.109Z,1.96
2018-01-17T13:25:10.095Z,2.35
2018-01-17T13:27:36.169Z,2.27
2018-01-17T13:30:02.543Z,2.42
2018-01-17T13:32:28.608Z,2.40
2018-01-17T13:34:54.716Z,2.02
2018-01-17T13:37:20.656Z,1.78
2018-01-17T13:39:46.748Z,1.80
2018-01-17T13:42:12.880Z,1.69
2018-01-17T13:44:38.884Z,2.05
2018-01-17T13:47:04.957Z,1.79
2018-01-17T13:49:31.022Z,1.58
2018-01-17T13:51:57.069Z,1.50
2018-01-17T13:54:23.179Z,1.38
2018-01-17T13:56:49.169Z,1.38
2018-01-17T13:59:15.195Z,1.47
2018-01-17T14:01:41.265Z,1.46
2018-01-17T14:04:07.327Z,1.48
2018-01-17T14:06:33.348Z,1.46
2018-01-17T14:08:59.335Z,1.58
2018-01-17T14:11:25.380Z,2.20
2018-01-17T14:13:51.377Z,3.41
2018-01-17T14:16:17.409Z,2.87
2018-01-17T14:18:43.481Z,2.30
2018-01-17T14:21:09.501Z,2.37
2018-01-17T14:23:35.557Z,2.38
2018-01-17T14:26:01.608Z,2.04
2018-01-17T14:28:27.676Z,1.83
2018-01-17T14:30:53.728Z,1.58
2018-01-17T14:33:19.751Z,1.32
2018-01-17T14:35:45.792Z,1.36
2018-01-17T14:38:11.813Z,1.26
2018-01-17T14:40:37.929Z,1.20
2018-01-17T14:43:09.912Z,1.23
2018-01-17T14:45:35.925Z,1.16
2018-01-17T14:48:01.985Z,1.06
2018-01-17T14:50:28.116Z,0.95
2018-01-17T14:52:54.133Z,0.95
2018-01-17T14:55:20.176Z,0.79
2018-01-17T14:57:46.182Z,0.84
2018-01-17T15:00:15.194Z,0.84
2018-01-17T15:02:41.263Z,0.76
2018-01-17T15:05:07.298Z,0.73
2018-01-17T15:07:33.337Z,0.71
2018-01-17T15:09:59.345Z,0.72
2018-01-17T15:12:25.382Z,0.72
2018-01-17T15:14:51.413Z,0.77
2018-01-17T15:17:17.526Z,0.79
2018-01-17T15:19:43.584Z,0.83
2018-01-17T15:22:09.648Z,0.83
2018-01-17T15:24:35.699Z,0.84
2018-01-17T15:27:01.749Z,0.84
2018-01-17T15:29:27.852Z,0.85
2018-01-17T15:31:54.344Z,0.86
2018-01-17T15:34:20.364Z,0.81
2018-01-17T15:36:46.461Z,0.89
2018-01-17T15:39:12.488Z,1.00
2018-01-17T15:41:38.532Z,0.97
2018-01-17T15:44:04.556Z,0.92
2018-01-17T15:46:30.589Z,0.88
2018-01-17T15:48:56.689Z,0.92
2018-01-17T15:51:22.729Z,0.84
2018-01-17T15:53:48.813Z,0.80
2018-01-17T15:56:14.860Z,0.79
2018-01-17T15:58:40.891Z,0.71
2018-01-17T16:01:06.939Z,0.63
2018-01-17T16:03:32.996Z,0.51
2018-01-17T16:05:59.172Z,0.49
2018-01-17T16:08:25.257Z,0.43
2018-01-17T16:10:51.298Z,0.48
2018-01-17T16:13:17.384Z,0.50
2018-01-17T16:15:43.484Z,0.54
2018-01-17T16:18:09.544Z,0.62
2018-01-17T16:20:35.581Z,0.63
2018-01-17T16:23:01.676Z,0.70
2018-01-17T16:25:27.735Z,0.74
2018-01-17T16:27:53.788Z,0.72
2018-01-17T16:30:19.848Z,0.75
2018-01-17T16:32:45.911Z,0.74
2018-01-17T16:35:11.987Z,0.75
2018-01-17T16:37:37.946Z,0.76
2018-01-17T16:40:04.092Z,0.71
2018-01-17T16:42:30.165Z,0.83
2018-01-17T16:44:56.178Z,0.84
2018-01-17T16:47:22.327Z,0.74
2018-01-17T16:49:48.391Z,0.76
2018-01-17T16:52:14.466Z,0.71
2018-01-17T16:54:40.633Z,0.72
2018-01-17T16:57:06.765Z,0.71
2018-01-17T16:59:32.901Z,0.77
2018-01-17T17:01:59.015Z,0.80
2018-01-17T17:04:25.101Z,0.81
2018-01-17T17:06:51.478Z,0.84
2018-01-17T17:09:17.587Z,0.82
2018-01-17T17:11:43.627Z,0.83
2018-01-17T17:14:09.686Z,0.85
2018-01-17T17:16:35.714Z,0.91
2018-01-17T17:19:01.756Z,0.92
2018-01-17T17:21:27.918Z,0.98
2018-01-17T17:23:53.944Z,0.98
2018-01-17T17:26:19.990Z,0.97
2018-01-17T17:28:46.045Z,1.02
2018-01-17T17:31:12.098Z,1.03
2018-01-17T17:33:38.112Z,1.01
2018-01-17T17:36:04.198Z,1.07
2018-01-17T17:38:30.220Z,1.04
2018-01-17T17:41:03.103Z,1.03
2018-01-17T17:43:29.193Z,1.01
2018-01-17T17:45:55.346Z,0.99
2018-01-17T17:48:21.404Z,0.94
2018-01-17T17:50:47.456Z,0.93
2018-01-17T17:53:13.465Z,0.97
2018-01-17T17:55:39.464Z,1.03
2018-01-17T17:58:05.472Z,1.01
2018-01-17T18:00:31.549Z,1.01
2018-01-17T18:02:57.536Z,1.04
2018-01-17T18:05:23.578Z,1.02
2018-01-17T18:07:49.619Z,1.09
2018-01-17T18:10:15.673Z,1.08
2018-01-17T18:12:41.769Z,1.00
2018-01-17T18:15:07.796Z,1.00
2018-01-17T18:17:33.939Z,0.92
2018-01-17T18:19:59.970Z,0.94
2018-01-17T18:22:26.048Z,0.95
2018-01-17T18:24:52.076Z,0.94
2018-01-17T18:27:18.184Z,0.97
2018-01-17T18:29:44.220Z,0.92
2018-01-17T18:32:10.277Z,0.89
2018-01-17T18:34:36.460Z,0.85
2018-01-17T18:37:02.528Z,0.86
2018-01-17T18:39:28.577Z,0.86
2018-01-17T18:41:54.708Z,0.88
2018-01-17T18:44:20.840Z,0.89
2018-01-17T18:46:46.960Z,0.87
2018-01-17T18:49:13.010Z,0.87
2018-01-17T18:51:39.114Z,0.88
2018-01-17T18:54:05.229Z,0.89
2018-01-17T18:56:31.753Z,0.91
2018-01-17T18:58:57.850Z,0.93
2018-01-17T19:01:23.941Z,0.91
2018-01-17T19:03:50.065Z,0.94
2018-01-17T19:06:16.143Z,0.88
2018-01-17T19:08:42.339Z,0.86
2018-01-17T19:11:08.471Z,0.82
2018-01-17T19:13:34.607Z,0.78
2018-01-17T19:16:01.750Z,0.86
2018-01-17T19:18:27.860Z,0.86
2018-01-17T19:20:55.149Z,0.92
2018-01-17T19:23:21.262Z,0.91
2018-01-17T19:25:47.410Z,0.91
2018-01-17T19:28:13.526Z,0.90
2018-01-17T19:30:39.786Z,0.87
2018-01-17T19:33:05.933Z,0.95
2018-01-17T19:35:32.065Z,0.90
2018-01-17T19:37:58.089Z,0.96
2018-01-17T19:40:24.202Z,0.96
2018-01-17T19:42:50.357Z,1.06
2018-01-17T19:45:16.394Z,1.07
2018-01-17T19:47:42.468Z,1.03
2018-01-17T19:50:08.559Z,0.94
2018-01-17T19:52:34.782Z,0.92
2018-01-17T19:55:00.901Z,0.94
2018-01-17T19:57:26.981Z,0.90
2018-01-17T19:59:53.093Z,0.87
2018-01-17T20:02:19.233Z,0.90
2018-01-17T20:04:45.400Z,0.83
2018-01-17T20:07:11.435Z,0.70
2018-01-17T20:09:37.473Z,0.80
2018-01-17T20:12:04.420Z,0.81
2018-01-17T20:14:30.460Z,0.70
2018-01-17T20:16:56.520Z,0.73
2018-01-17T20:19:22.473Z,0.88
2018-01-17T20:21:48.519Z,0.88
2018-01-17T20:24:14.552Z,0.97
2018-01-17T20:26:40.548Z,1.01
2018-01-17T20:29:06.572Z,1.02
2018-01-17T20:31:32.620Z,0.99
2018-01-17T20:33:58.615Z,1.08
2018-01-17T20:36:24.819Z,1.04
2018-01-17T20:38:50.931Z,1.10
2018-01-17T20:41:17.037Z,1.08
2018-01-17T20:43:50.073Z,1.03
2018-01-17T20:46:16.109Z,1.13
2018-01-17T20:48:42.069Z,1.02
2018-01-17T20:51:08.141Z,0.98
2018-01-17T20:53:34.196Z,0.99
2018-01-17T20:56:00.241Z,1.07
2018-01-17T20:58:26.251Z,1.10
2018-01-17T21:00:52.305Z,1.10
2018-01-17T21:03:18.300Z,1.07
2018-01-17T21:05:44.344Z,1.07
2018-01-17T21:08:10.305Z,1.13
2018-01-17T21:10:36.339Z,1.09
2018-01-17T21:13:02.382Z,1.08
2018-01-17T21:15:28.413Z,1.07
2018-01-17T21:17:54.453Z,1.07
2018-01-17T21:20:20.452Z,0.98
2018-01-17T21:22:46.509Z,0.91
2018-01-17T21:25:12.644Z,0.95
2018-01-17T21:27:38.636Z,0.97
2018-01-17T21:30:04.686Z,0.97
2018-01-17T21:32:30.716Z,0.92
2018-01-17T21:34:56.701Z,0.94
2018-01-17T21:37:22.776Z,0.92
2018-01-17T21:39:48.805Z,0.94
2018-01-17T21:42:20.793Z,0.94
2018-01-17T21:44:53.004Z,1.01
2018-01-17T21:47:18.998Z,1.02
2018-01-17T21:49:45.020Z,1.07
2018-01-17T21:52:11.196Z,1.09
2018-01-17T21:54:37.213Z,1.08
2018-01-17T21:57:03.250Z,1.17
2018-01-17T21:59:29.301Z,1.18
2018-01-17T22:01:55.313Z,1.14
2018-01-17T22:04:21.352Z,1.17
2018-01-17T22:06:47.460Z,1.16
2018-01-17T22:09:13.565Z,1.21
2018-01-17T22:11:39.570Z,1.15
2018-01-17T22:14:05.616Z,1.13
2018-01-17T22:16:31.600Z,1.23
2018-01-17T22:18:57.632Z,1.23
2018-01-17T22:21:23.771Z,1.26
2018-01-17T22:23:49.800Z,1.26
2018-01-17T22:26:15.811Z,1.21
2018-01-17T22:28:41.845Z,1.16
2018-01-17T22:31:07.840Z,1.16
2018-01-17T22:33:33.881Z,1.16
2018-01-17T22:35:59.862Z,1.18
2018-01-17T22:38:25.945Z,1.16
2018-01-17T22:40:51.892Z,1.17
2018-01-17T22:43:17.908Z,1.12
2018-01-17T22:45:43.924Z,1.06
2018-01-17T22:48:09.944Z,1.02
2018-01-17T22:50:35.997Z,0.95
2018-01-17T22:53:09.128Z,0.95
2018-01-17T22:55:35.255Z,0.95
2018-01-17T22:58:01.313Z,0.93
2018-01-17T23:00:27.344Z,0.93
2018-01-17T23:02:53.423Z,0.92
2018-01-17T23:05:19.395Z,0.87
2018-01-17T23:07:45.401Z,0.83
2018-01-17T23:10:11.409Z,0.81
2018-01-17T23:12:37.403Z,0.79
2018-01-17T23:15:03.640Z,0.76
2018-01-17T23:17:29.652Z,0.75
2018-01-17T23:19:55.648Z,0.72
2018-01-17T23:22:21.652Z,0.68
2018-01-17T23:24:47.644Z,0.71
2018-01-17T23:27:13.677Z,0.69
2018-01-17T23:29:39.677Z,0.65
2018-01-17T23:32:05.783Z,0.64
2018-01-17T23:34:31.857Z,0.67
2018-01-17T23:36:57.884Z,0.64
2018-01-17T23:39:23.900Z,0.60
2018-01-17T23:41:49.933Z,0.64
2018-01-17T23:44:15.942Z,0.75
2018-01-17T23:46:41.967Z,0.84
2018-01-17T23:49:08.019Z,0.92
2018-01-17T23:51:34.041Z,0.93
2018-01-17T23:54:00.062Z,0.91
2018-01-17T23:56:26.112Z,0.93
2018-01-17T23:58:52.555Z,0.91
